sensor_id;sensor_type;location;lat;lon;timestamp;P1;durP1;ratioP1;P2;durP2;ratioP2
50429;SDS011;36359;41.556;-8.418;2023-08-08T00:00:05;2.40;;;0.68;;
50429;SDS011;36359;41.556;-8.418;2023-08-08T00:02:31;1.95;;;0.70;;
50429;SDS011;36359;41.556;-8.418;2023-08-08T00:04:57;0.98;;;0.68;;
50429;SDS011;36359;41.556;-8.418;2023-08-08T00:09:49;2.97;;;0.60;;
50429;SDS011;36359;41.556;-8.418;2023-08-08T00:12:14;2.17;;;0.50;;
50429;SDS011;36359;41.556;-8.418;2023-08-08T00:14:40;1.58;;;0.63;;
50429;SDS011;36359;41.556;-8.418;2023-08-08T00:17:06;2.95;;;0.57;;
50429;SDS011;36359;41.556;-8.418;2023-08-08T00:19:31;2.58;;;0.60;;
50429;SDS011;36359;41.556;-8.418;2023-08-08T00:21:57;2.35;;;0.93;;
50429;SDS011;36359;41.556;-8.418;2023-08-08T00:24:23;2.83;;;0.63;;
50429;SDS011;36359;41.556;-8.418;2023-08-08T00:26:48;0.90;;;0.47;;
50429;SDS011;36359;41.556;-8.418;2023-08-08T00:29:14;2.92;;;0.52;;
50429;SDS011;36359;41.556;-8.418;2023-08-08T00:31:40;1.73;;;0.73;;
50429;SDS011;36359;41.556;-8.418;2023-08-08T00:34:05;2.63;;;0.70;;
50429;SDS011;36359;41.556;-8.418;2023-08-08T00:36:31;1.95;;;0.63;;
50429;SDS011;36359;41.556;-8.418;2023-08-08T00:38:57;1.00;;;0.50;;
50429;SDS011;36359;41.556;-8.418;2023-08-08T00:41:23;1.83;;;0.80;;
50429;SDS011;36359;41.556;-8.418;2023-08-08T00:43:48;2.22;;;0.70;;
50429;SDS011;36359;41.556;-8.418;2023-08-08T00:46:16;2.05;;;0.70;;
50429;SDS011;36359;41.556;-8.418;2023-08-08T00:48:46;2.30;;;0.80;;
50429;SDS011;36359;41.556;-8.418;2023-08-08T00:51:12;2.58;;;0.60;;
50429;SDS011;36359;41.556;-8.418;2023-08-08T00:53:38;1.75;;;0.57;;
50429;SDS011;36359;41.556;-8.418;2023-08-08T00:56:05;1.85;;;0.50;;
50429;SDS011;36359;41.556;-8.418;2023-08-08T00:58:31;2.30;;;0.68;;
50429;SDS011;36359;41.556;-8.418;2023-08-08T01:00:56;2.67;;;0.50;;
50429;SDS011;36359;41.556;-8.418;2023-08-08T01:03:25;1.35;;;0.47;;
50429;SDS011;36359;41.556;-8.418;2023-08-08T01:05:59;2.25;;;0.40;;
50429;SDS011;36359;41.556;-8.418;2023-08-08T01:08:32;1.63;;;0.60;;
50429;SDS011;36359;41.556;-8.418;2023-08-08T01:11:04;2.05;;;0.47;;
50429;SDS011;36359;41.556;-8.418;2023-08-08T01:13:30;1.70;;;0.40;;
50429;SDS011;36359;41.556;-8.418;2023-08-08T01:15:58;2.63;;;0.60;;
50429;SDS011;36359;41.556;-8.418;2023-08-08T01:18:25;2.58;;;0.50;;
50429;SDS011;36359;41.556;-8.418;2023-08-08T01:20:52;2.38;;;0.60;;
50429;SDS011;36359;41.556;-8.418;2023-08-08T01:25:53;3.38;;;0.90;;
50429;SDS011;36359;41.556;-8.418;2023-08-08T01:28:21;1.15;;;0.50;;
50429;SDS011;36359;41.556;-8.418;2023-08-08T01:30:48;1.55;;;0.50;;
50429;SDS011;36359;41.556;-8.418;2023-08-08T01:33:14;1.60;;;0.40;;
50429;SDS011;36359;41.556;-8.418;2023-08-08T01:35:41;3.35;;;0.50;;
50429;SDS011;36359;41.556;-8.418;2023-08-08T01:38:14;2.13;;;0.50;;
50429;SDS011;36359;41.556;-8.418;2023-08-08T01:40:41;0.65;;;0.30;;
50429;SDS011;36359;41.556;-8.418;2023-08-08T01:43:09;1.05;;;0.40;;
50429;SDS011;36359;41.556;-8.418;2023-08-08T01:45:36;1.67;;;0.70;;
50429;SDS011;36359;41.556;-8.418;2023-08-08T01:48:10;2.78;;;0.40;;
50429;SDS011;36359;41.556;-8.418;2023-08-08T01:50:36;1.98;;;0.50;;
50429;SDS011;36359;41.556;-8.418;2023-08-08T01:53:03;2.22;;;0.40;;
50429;SDS011;36359;41.556;-8.418;2023-08-08T01:55:30;1.02;;;0.50;;
50429;SDS011;36359;41.556;-8.418;2023-08-08T01:57:55;1.58;;;0.60;;
50429;SDS011;36359;41.556;-8.418;2023-08-08T02:00:21;2.10;;;0.47;;
50429;SDS011;36359;41.556;-8.418;2023-08-08T02:02:47;1.77;;;0.77;;
50429;SDS011;36359;41.556;-8.418;2023-08-08T02:05:13;1.92;;;0.38;;
50429;SDS011;36359;41.556;-8.418;2023-08-08T02:07:39;0.93;;;0.40;;
50429;SDS011;36359;41.556;-8.418;2023-08-08T02:10:05;0.70;;;0.30;;
50429;SDS011;36359;41.556;-8.418;2023-08-08T02:12:31;1.15;;;0.40;;
50429;SDS011;36359;41.556;-8.418;2023-08-08T02:14:58;1.60;;;0.40;;
50429;SDS011;36359;41.556;-8.418;2023-08-08T02:17:24;3.25;;;0.73;;
50429;SDS011;36359;41.556;-8.418;2023-08-08T02:19:51;2.75;;;0.70;;
50429;SDS011;36359;41.556;-8.418;2023-08-08T02:22:16;1.50;;;0.40;;
50429;SDS011;36359;41.556;-8.418;2023-08-08T02:24:43;1.30;;;0.45;;
50429;SDS011;36359;41.556;-8.418;2023-08-08T02:27:09;3.03;;;0.60;;
50429;SDS011;36359;41.556;-8.418;2023-08-08T02:29:35;1.55;;;0.60;;
50429;SDS011;36359;41.556;-8.418;2023-08-08T02:32:01;3.17;;;0.40;;
50429;SDS011;36359;41.556;-8.418;2023-08-08T02:34:27;3.72;;;0.40;;
50429;SDS011;36359;41.556;-8.418;2023-08-08T02:36:52;1.98;;;0.50;;
50429;SDS011;36359;41.556;-8.418;2023-08-08T02:39:18;2.00;;;0.47;;
50429;SDS011;36359;41.556;-8.418;2023-08-08T02:41:44;1.52;;;0.38;;
50429;SDS011;36359;41.556;-8.418;2023-08-08T02:44:11;0.93;;;0.40;;
50429;SDS011;36359;41.556;-8.418;2023-08-08T02:46:37;1.48;;;0.43;;
50429;SDS011;36359;41.556;-8.418;2023-08-08T02:49:06;1.88;;;0.60;;
50429;SDS011;36359;41.556;-8.418;2023-08-08T02:51:32;1.38;;;0.47;;
50429;SDS011;36359;41.556;-8.418;2023-08-08T02:53:58;2.55;;;0.35;;
50429;SDS011;36359;41.556;-8.418;2023-08-08T02:56:24;1.98;;;0.40;;
50429;SDS011;36359;41.556;-8.418;2023-08-08T02:58:51;1.13;;;0.30;;
50429;SDS011;36359;41.556;-8.418;2023-08-08T03:01:17;0.55;;;0.32;;
50429;SDS011;36359;41.556;-8.418;2023-08-08T03:03:45;1.52;;;0.60;;
50429;SDS011;36359;41.556;-8.418;2023-08-08T03:06:12;2.88;;;0.35;;
50429;SDS011;36359;41.556;-8.418;2023-08-08T03:08:38;2.10;;;0.38;;
50429;SDS011;36359;41.556;-8.418;2023-08-08T03:11:04;1.30;;;0.77;;
50429;SDS011;36359;41.556;-8.418;2023-08-08T03:13:31;1.73;;;0.60;;
50429;SDS011;36359;41.556;-8.418;2023-08-08T03:15:58;3.58;;;0.60;;
50429;SDS011;36359;41.556;-8.418;2023-08-08T03:18:24;1.42;;;0.30;;
50429;SDS011;36359;41.556;-8.418;2023-08-08T03:20:52;2.03;;;0.45;;
50429;SDS011;36359;41.556;-8.418;2023-08-08T03:23:18;0.85;;;0.45;;
50429;SDS011;36359;41.556;-8.418;2023-08-08T03:25:44;1.13;;;0.38;;
50429;SDS011;36359;41.556;-8.418;2023-08-08T03:28:11;2.00;;;0.30;;
50429;SDS011;36359;41.556;-8.418;2023-08-08T03:30:37;1.63;;;0.40;;
50429;SDS011;36359;41.556;-8.418;2023-08-08T03:33:05;0.88;;;0.30;;
50429;SDS011;36359;41.556;-8.418;2023-08-08T03:35:30;1.50;;;0.50;;
50429;SDS011;36359;41.556;-8.418;2023-08-08T03:37:56;1.23;;;0.57;;
50429;SDS011;36359;41.556;-8.418;2023-08-08T03:40:23;2.13;;;0.50;;
50429;SDS011;36359;41.556;-8.418;2023-08-08T03:42:48;1.00;;;0.43;;
50429;SDS011;36359;41.556;-8.418;2023-08-08T03:45:14;0.85;;;0.40;;
50429;SDS011;36359;41.556;-8.418;2023-08-08T03:47:40;1.48;;;0.60;;
50429;SDS011;36359;41.556;-8.418;2023-08-08T03:50:07;1.30;;;0.40;;
50429;SDS011;36359;41.556;-8.418;2023-08-08T03:52:33;1.00;;;0.32;;
50429;SDS011;36359;41.556;-8.418;2023-08-08T03:55:01;2.67;;;0.40;;
50429;SDS011;36359;41.556;-8.418;2023-08-08T03:57:27;3.22;;;0.65;;
50429;SDS011;36359;41.556;-8.418;2023-08-08T03:59:52;1.20;;;0.60;;
50429;SDS011;36359;41.556;-8.418;2023-08-08T04:02:18;1.35;;;0.47;;
50429;SDS011;36359;41.556;-8.418;2023-08-08T04:04:44;0.90;;;0.32;;
50429;SDS011;36359;41.556;-8.418;2023-08-08T04:07:10;1.42;;;0.50;;
50429;SDS011;36359;41.556;-8.418;2023-08-08T04:09:35;1.42;;;0.40;;
50429;SDS011;36359;41.556;-8.418;2023-08-08T04:12:01;2.55;;;0.55;;
50429;SDS011;36359;41.556;-8.418;2023-08-08T04:14:27;0.85;;;0.40;;
50429;SDS011;36359;41.556;-8.418;2023-08-08T04:16:53;1.15;;;0.40;;
50429;SDS011;36359;41.556;-8.418;2023-08-08T04:19:18;1.48;;;0.50;;
50429;SDS011;36359;41.556;-8.418;2023-08-08T04:21:44;1.33;;;0.43;;
50429;SDS011;36359;41.556;-8.418;2023-08-08T04:24:10;1.65;;;0.43;;
50429;SDS011;36359;41.556;-8.418;2023-08-08T04:26:37;2.35;;;0.47;;
50429;SDS011;36359;41.556;-8.418;2023-08-08T04:29:03;1.95;;;0.60;;
50429;SDS011;36359;41.556;-8.418;2023-08-08T04:31:29;3.22;;;0.65;;
50429;SDS011;36359;41.556;-8.418;2023-08-08T04:33:54;1.88;;;0.57;;
50429;SDS011;36359;41.556;-8.418;2023-08-08T04:36:25;1.10;;;0.38;;
50429;SDS011;36359;41.556;-8.418;2023-08-08T04:38:52;1.92;;;0.40;;
50429;SDS011;36359;41.556;-8.418;2023-08-08T04:41:17;0.95;;;0.40;;
50429;SDS011;36359;41.556;-8.418;2023-08-08T04:43:43;1.73;;;0.47;;
50429;SDS011;36359;41.556;-8.418;2023-08-08T04:46:09;1.45;;;0.50;;
50429;SDS011;36359;41.556;-8.418;2023-08-08T04:48:36;2.08;;;0.40;;
50429;SDS011;36359;41.556;-8.418;2023-08-08T04:51:04;1.40;;;0.50;;
50429;SDS011;36359;41.556;-8.418;2023-08-08T04:53:30;2.58;;;0.68;;
50429;SDS011;36359;41.556;-8.418;2023-08-08T04:55:56;0.73;;;0.40;;
50429;SDS011;36359;41.556;-8.418;2023-08-08T04:58:22;2.35;;;0.38;;
50429;SDS011;36359;41.556;-8.418;2023-08-08T05:00:47;0.90;;;0.50;;
50429;SDS011;36359;41.556;-8.418;2023-08-08T05:03:13;2.60;;;0.55;;
50429;SDS011;36359;41.556;-8.418;2023-08-08T05:05:39;1.45;;;0.32;;
50429;SDS011;36359;41.556;-8.418;2023-08-08T05:08:05;1.45;;;0.60;;
50429;SDS011;36359;41.556;-8.418;2023-08-08T05:10:30;0.68;;;0.25;;
50429;SDS011;36359;41.556;-8.418;2023-08-08T05:12:56;1.83;;;0.60;;
50429;SDS011;36359;41.556;-8.418;2023-08-08T05:15:23;1.58;;;0.82;;
50429;SDS011;36359;41.556;-8.418;2023-08-08T05:17:48;1.52;;;0.38;;
50429;SDS011;36359;41.556;-8.418;2023-08-08T05:20:14;1.08;;;0.57;;
50429;SDS011;36359;41.556;-8.418;2023-08-08T05:22:40;1.10;;;0.63;;
50429;SDS011;36359;41.556;-8.418;2023-08-08T05:25:06;1.25;;;0.47;;
50429;SDS011;36359;41.556;-8.418;2023-08-08T05:27:32;4.10;;;1.20;;
50429;SDS011;36359;41.556;-8.418;2023-08-08T05:29:57;2.90;;;0.98;;
50429;SDS011;36359;41.556;-8.418;2023-08-08T05:32:23;3.55;;;1.35;;
50429;SDS011;36359;41.556;-8.418;2023-08-08T05:34:50;3.42;;;1.80;;
50429;SDS011;36359;41.556;-8.418;2023-08-08T05:37:16;3.88;;;1.33;;
50429;SDS011;36359;41.556;-8.418;2023-08-08T05:39:42;1.35;;;0.35;;
50429;SDS011;36359;41.556;-8.418;2023-08-08T05:42:08;2.08;;;1.30;;
50429;SDS011;36359;41.556;-8.418;2023-08-08T05:44:33;2.88;;;1.42;;
50429;SDS011;36359;41.556;-8.418;2023-08-08T05:46:59;2.22;;;0.70;;
50429;SDS011;36359;41.556;-8.418;2023-08-08T05:49:25;3.90;;;1.55;;
50429;SDS011;36359;41.556;-8.418;2023-08-08T05:51:50;2.28;;;1.17;;
50429;SDS011;36359;41.556;-8.418;2023-08-08T05:54:16;1.10;;;0.60;;
50429;SDS011;36359;41.556;-8.418;2023-08-08T05:56:41;1.73;;;0.90;;
50429;SDS011;36359;41.556;-8.418;2023-08-08T05:59:07;2.10;;;0.98;;
50429;SDS011;36359;41.556;-8.418;2023-08-08T06:01:33;3.60;;;1.40;;
50429;SDS011;36359;41.556;-8.418;2023-08-08T06:04:00;2.78;;;0.93;;
50429;SDS011;36359;41.556;-8.418;2023-08-08T06:06:26;3.88;;;0.95;;
50429;SDS011;36359;41.556;-8.418;2023-08-08T06:08:52;1.80;;;1.17;;
50429;SDS011;36359;41.556;-8.418;2023-08-08T06:11:18;1.88;;;0.82;;
50429;SDS011;36359;41.556;-8.418;2023-08-08T06:13:44;2.05;;;0.80;;
50429;SDS011;36359;41.556;-8.418;2023-08-08T06:16:09;3.40;;;1.25;;
50429;SDS011;36359;41.556;-8.418;2023-08-08T06:18:35;2.30;;;1.08;;
50429;SDS011;36359;41.556;-8.418;2023-08-08T06:21:02;9.63;;;1.83;;
50429;SDS011;36359;41.556;-8.418;2023-08-08T06:23:28;7.72;;;2.00;;
50429;SDS011;36359;41.556;-8.418;2023-08-08T06:25:53;3.03;;;1.10;;
50429;SDS011;36359;41.556;-8.418;2023-08-08T06:28:19;6.90;;;1.80;;
50429;SDS011;36359;41.556;-8.418;2023-08-08T06:30:45;2.92;;;1.20;;
50429;SDS011;36359;41.556;-8.418;2023-08-08T06:33:11;1.90;;;0.85;;
50429;SDS011;36359;41.556;-8.418;2023-08-08T06:35:36;3.25;;;1.48;;
50429;SDS011;36359;41.556;-8.418;2023-08-08T06:38:02;4.57;;;1.63;;
50429;SDS011;36359;41.556;-8.418;2023-08-08T06:40:28;6.32;;;1.00;;
50429;SDS011;36359;41.556;-8.418;2023-08-08T06:42:54;2.80;;;0.93;;
50429;SDS011;36359;41.556;-8.418;2023-08-08T06:45:20;4.18;;;1.10;;
50429;SDS011;36359;41.556;-8.418;2023-08-08T06:47:46;1.60;;;1.10;;
50429;SDS011;36359;41.556;-8.418;2023-08-08T06:50:12;1.88;;;0.75;;
50429;SDS011;36359;41.556;-8.418;2023-08-08T06:52:38;6.10;;;2.15;;
50429;SDS011;36359;41.556;-8.418;2023-08-08T06:55:04;1.25;;;0.77;;
50429;SDS011;36359;41.556;-8.418;2023-08-08T06:57:32;3.30;;;1.55;;
50429;SDS011;36359;41.556;-8.418;2023-08-08T06:59:59;4.10;;;1.50;;
50429;SDS011;36359;41.556;-8.418;2023-08-08T07:02:25;3.33;;;1.00;;
50429;SDS011;36359;41.556;-8.418;2023-08-08T07:04:51;3.67;;;1.55;;
50429;SDS011;36359;41.556;-8.418;2023-08-08T07:07:16;5.05;;;2.05;;
50429;SDS011;36359;41.556;-8.418;2023-08-08T07:09:42;2.40;;;1.30;;
50429;SDS011;36359;41.556;-8.418;2023-08-08T07:12:08;2.45;;;1.60;;
50429;SDS011;36359;41.556;-8.418;2023-08-08T07:14:34;3.13;;;1.30;;
50429;SDS011;36359;41.556;-8.418;2023-08-08T07:17:00;1.80;;;0.88;;
50429;SDS011;36359;41.556;-8.418;2023-08-08T07:19:28;2.05;;;1.25;;
50429;SDS011;36359;41.556;-8.418;2023-08-08T07:21:54;1.55;;;1.02;;
50429;SDS011;36359;41.556;-8.418;2023-08-08T07:24:19;2.90;;;1.73;;
50429;SDS011;36359;41.556;-8.418;2023-08-08T07:26:45;4.55;;;1.60;;
50429;SDS011;36359;41.556;-8.418;2023-08-08T07:29:11;3.38;;;1.33;;
50429;SDS011;36359;41.556;-8.418;2023-08-08T07:31:37;3.28;;;1.67;;
50429;SDS011;36359;41.556;-8.418;2023-08-08T07:34:03;3.95;;;1.80;;
50429;SDS011;36359;41.556;-8.418;2023-08-08T07:36:28;2.95;;;1.17;;
50429;SDS011;36359;41.556;-8.418;2023-08-08T07:38:54;2.58;;;1.08;;
50429;SDS011;36359;41.556;-8.418;2023-08-08T07:41:25;3.70;;;1.65;;
50429;SDS011;36359;41.556;-8.418;2023-08-08T07:43:52;1.15;;;0.93;;
50429;SDS011;36359;41.556;-8.418;2023-08-08T07:46:18;4.00;;;1.45;;
50429;SDS011;36359;41.556;-8.418;2023-08-08T07:48:44;2.78;;;1.60;;
50429;SDS011;36359;41.556;-8.418;2023-08-08T07:51:10;2.13;;;1.30;;
50429;SDS011;36359;41.556;-8.418;2023-08-08T07:53:35;12.10;;;3.92;;
50429;SDS011;36359;41.556;-8.418;2023-08-08T07:56:01;7.07;;;3.30;;
50429;SDS011;36359;41.556;-8.418;2023-08-08T07:58:26;3.40;;;1.98;;
50429;SDS011;36359;41.556;-8.418;2023-08-08T08:00:52;5.38;;;2.42;;
50429;SDS011;36359;41.556;-8.418;2023-08-08T08:03:21;4.20;;;1.73;;
50429;SDS011;36359;41.556;-8.418;2023-08-08T08:05:47;6.57;;;2.47;;
50429;SDS011;36359;41.556;-8.418;2023-08-08T08:08:13;3.90;;;2.38;;
50429;SDS011;36359;41.556;-8.418;2023-08-08T08:10:39;3.70;;;2.17;;
50429;SDS011;36359;41.556;-8.418;2023-08-08T08:13:05;5.60;;;2.67;;
50429;SDS011;36359;41.556;-8.418;2023-08-08T08:15:30;4.88;;;2.55;;
50429;SDS011;36359;41.556;-8.418;2023-08-08T08:17:56;6.55;;;3.88;;
50429;SDS011;36359;41.556;-8.418;2023-08-08T08:20:22;10.77;;;5.30;;
50429;SDS011;36359;41.556;-8.418;2023-08-08T08:22:47;6.38;;;2.75;;
50429;SDS011;36359;41.556;-8.418;2023-08-08T08:25:14;12.40;;;6.53;;
50429;SDS011;36359;41.556;-8.418;2023-08-08T08:27:40;5.10;;;2.97;;
50429;SDS011;36359;41.556;-8.418;2023-08-08T08:30:06;9.52;;;4.40;;
50429;SDS011;36359;41.556;-8.418;2023-08-08T08:32:35;12.77;;;8.15;;
50429;SDS011;36359;41.556;-8.418;2023-08-08T08:35:02;6.18;;;3.10;;
50429;SDS011;36359;41.556;-8.418;2023-08-08T08:37:31;8.18;;;5.07;;
50429;SDS011;36359;41.556;-8.418;2023-08-08T08:39:57;25.52;;;14.70;;
50429;SDS011;36359;41.556;-8.418;2023-08-08T08:42:24;23.13;;;12.73;;
50429;SDS011;36359;41.556;-8.418;2023-08-08T08:44:51;21.48;;;13.60;;
50429;SDS011;36359;41.556;-8.418;2023-08-08T08:47:19;13.50;;;6.43;;
50429;SDS011;36359;41.556;-8.418;2023-08-08T08:49:45;22.95;;;14.50;;
50429;SDS011;36359;41.556;-8.418;2023-08-08T08:52:11;12.70;;;7.13;;
50429;SDS011;36359;41.556;-8.418;2023-08-08T08:54:37;13.77;;;7.82;;
50429;SDS011;36359;41.556;-8.418;2023-08-08T08:57:03;31.45;;;19.58;;
50429;SDS011;36359;41.556;-8.418;2023-08-08T08:59:29;17.08;;;8.73;;
50429;SDS011;36359;41.556;-8.418;2023-08-08T09:01:56;17.05;;;10.38;;
50429;SDS011;36359;41.556;-8.418;2023-08-08T09:04:22;38.10;;;25.17;;
50429;SDS011;36359;41.556;-8.418;2023-08-08T09:06:49;22.02;;;12.63;;
50429;SDS011;36359;41.556;-8.418;2023-08-08T09:09:16;19.40;;;12.50;;
50429;SDS011;36359;41.556;-8.418;2023-08-08T09:11:45;31.88;;;21.92;;
50429;SDS011;36359;41.556;-8.418;2023-08-08T09:14:20;33.03;;;21.88;;
50429;SDS011;36359;41.556;-8.418;2023-08-08T09:16:48;43.35;;;28.00;;
50429;SDS011;36359;41.556;-8.418;2023-08-08T09:19:15;67.32;;;45.30;;
50429;SDS011;36359;41.556;-8.418;2023-08-08T09:21:42;88.55;;;54.85;;
50429;SDS011;36359;41.556;-8.418;2023-08-08T09:24:09;66.50;;;43.72;;
50429;SDS011;36359;41.556;-8.418;2023-08-08T09:26:35;76.68;;;48.38;;
50429;SDS011;36359;41.556;-8.418;2023-08-08T09:29:01;67.78;;;45.05;;
50429;SDS011;36359;41.556;-8.418;2023-08-08T09:31:28;62.72;;;37.13;;
50429;SDS011;36359;41.556;-8.418;2023-08-08T09:34:00;62.08;;;38.30;;
50429;SDS011;36359;41.556;-8.418;2023-08-08T09:36:27;66.50;;;46.00;;
50429;SDS011;36359;41.556;-8.418;2023-08-08T09:38:54;58.05;;;39.00;;
50429;SDS011;36359;41.556;-8.418;2023-08-08T09:41:20;66.57;;;42.47;;
50429;SDS011;36359;41.556;-8.418;2023-08-08T09:43:47;54.55;;;36.28;;
50429;SDS011;36359;41.556;-8.418;2023-08-08T09:46:13;57.65;;;35.35;;
50429;SDS011;36359;41.556;-8.418;2023-08-08T09:48:41;50.08;;;35.03;;
50429;SDS011;36359;41.556;-8.418;2023-08-08T09:51:07;48.78;;;32.55;;
50429;SDS011;36359;41.556;-8.418;2023-08-08T09:53:34;47.55;;;30.00;;
50429;SDS011;36359;41.556;-8.418;2023-08-08T09:56:01;47.15;;;30.52;;
50429;SDS011;36359;41.556;-8.418;2023-08-08T09:58:29;41.70;;;27.58;;
50429;SDS011;36359;41.556;-8.418;2023-08-08T10:00:55;42.38;;;25.67;;
50429;SDS011;36359;41.556;-8.418;2023-08-08T10:03:21;40.33;;;25.20;;
50429;SDS011;36359;41.556;-8.418;2023-08-08T10:05:48;39.75;;;22.85;;
50429;SDS011;36359;41.556;-8.418;2023-08-08T10:08:14;28.65;;;19.45;;
50429;SDS011;36359;41.556;-8.418;2023-08-08T10:10:41;31.13;;;19.58;;
50429;SDS011;36359;41.556;-8.418;2023-08-08T10:13:09;32.88;;;21.02;;
50429;SDS011;36359;41.556;-8.418;2023-08-08T10:15:39;37.50;;;24.35;;
50429;SDS011;36359;41.556;-8.418;2023-08-08T10:18:05;30.77;;;21.17;;
50429;SDS011;36359;41.556;-8.418;2023-08-08T10:20:31;51.35;;;33.28;;
50429;SDS011;36359;41.556;-8.418;2023-08-08T10:22:59;41.53;;;27.45;;
50429;SDS011;36359;41.556;-8.418;2023-08-08T10:25:29;38.70;;;26.30;;
50429;SDS011;36359;41.556;-8.418;2023-08-08T10:28:03;36.83;;;24.02;;
50429;SDS011;36359;41.556;-8.418;2023-08-08T10:30:30;36.47;;;21.65;;
50429;SDS011;36359;41.556;-8.418;2023-08-08T10:33:20;35.05;;;21.02;;
50429;SDS011;36359;41.556;-8.418;2023-08-08T10:38:48;30.27;;;17.67;;
50429;SDS011;36359;41.556;-8.418;2023-08-08T10:41:16;23.88;;;13.48;;
50429;SDS011;36359;41.556;-8.418;2023-08-08T10:43:49;27.52;;;16.95;;
50429;SDS011;36359;41.556;-8.418;2023-08-08T10:48:52;32.25;;;20.27;;
50429;SDS011;36359;41.556;-8.418;2023-08-08T10:51:46;35.35;;;22.75;;
50429;SDS011;36359;41.556;-8.418;2023-08-08T10:54:13;19.00;;;12.43;;
50429;SDS011;36359;41.556;-8.418;2023-08-08T10:56:40;20.90;;;12.05;;
50429;SDS011;36359;41.556;-8.418;2023-08-08T10:59:19;17.58;;;10.75;;
50429;SDS011;36359;41.556;-8.418;2023-08-08T11:01:48;17.92;;;10.23;;
50429;SDS011;36359;41.556;-8.418;2023-08-08T11:04:16;17.50;;;11.88;;
50429;SDS011;36359;41.556;-8.418;2023-08-08T11:06:47;16.48;;;7.32;;
50429;SDS011;36359;41.556;-8.418;2023-08-08T11:09:15;13.18;;;7.45;;
50429;SDS011;36359;41.556;-8.418;2023-08-08T11:11:43;18.33;;;9.98;;
50429;SDS011;36359;41.556;-8.418;2023-08-08T11:14:14;15.85;;;9.55;;
50429;SDS011;36359;41.556;-8.418;2023-08-08T11:16:41;13.13;;;8.52;;
50429;SDS011;36359;41.556;-8.418;2023-08-08T11:19:08;16.23;;;7.55;;
50429;SDS011;36359;41.556;-8.418;2023-08-08T11:21:35;15.63;;;7.97;;
50429;SDS011;36359;41.556;-8.418;2023-08-08T11:24:03;15.35;;;8.43;;
50429;SDS011;36359;41.556;-8.418;2023-08-08T11:26:29;15.50;;;8.18;;
50429;SDS011;36359;41.556;-8.418;2023-08-08T11:28:58;21.05;;;8.88;;
50429;SDS011;36359;41.556;-8.418;2023-08-08T11:31:28;17.20;;;7.97;;
50429;SDS011;36359;41.556;-8.418;2023-08-08T11:33:54;14.02;;;7.78;;
50429;SDS011;36359;41.556;-8.418;2023-08-08T11:36:21;16.73;;;10.50;;
50429;SDS011;36359;41.556;-8.418;2023-08-08T11:38:48;21.85;;;11.40;;
50429;SDS011;36359;41.556;-8.418;2023-08-08T11:41:15;22.60;;;11.82;;
50429;SDS011;36359;41.556;-8.418;2023-08-08T11:43:45;22.20;;;13.40;;
50429;SDS011;36359;41.556;-8.418;2023-08-08T11:46:11;23.58;;;14.93;;
50429;SDS011;36359;41.556;-8.418;2023-08-08T11:48:38;24.23;;;13.63;;
50429;SDS011;36359;41.556;-8.418;2023-08-08T11:51:04;25.85;;;13.45;;
50429;SDS011;36359;41.556;-8.418;2023-08-08T11:53:30;24.83;;;13.00;;
50429;SDS011;36359;41.556;-8.418;2023-08-08T11:55:57;19.38;;;12.82;;
50429;SDS011;36359;41.556;-8.418;2023-08-08T11:58:24;19.25;;;11.70;;
50429;SDS011;36359;41.556;-8.418;2023-08-08T12:00:50;19.63;;;11.57;;
50429;SDS011;36359;41.556;-8.418;2023-08-08T12:03:18;19.23;;;11.48;;
50429;SDS011;36359;41.556;-8.418;2023-08-08T12:05:47;18.83;;;11.93;;
50429;SDS011;36359;41.556;-8.418;2023-08-08T12:08:22;19.48;;;12.13;;
50429;SDS011;36359;41.556;-8.418;2023-08-08T12:10:52;19.33;;;10.90;;
50429;SDS011;36359;41.556;-8.418;2023-08-08T12:13:20;19.80;;;10.23;;
50429;SDS011;36359;41.556;-8.418;2023-08-08T12:15:47;17.17;;;10.38;;
50429;SDS011;36359;41.556;-8.418;2023-08-08T12:18:15;17.63;;;10.52;;
50429;SDS011;36359;41.556;-8.418;2023-08-08T12:20:45;16.15;;;10.20;;
50429;SDS011;36359;41.556;-8.418;2023-08-08T12:23:12;18.90;;;10.73;;
50429;SDS011;36359;41.556;-8.418;2023-08-08T12:25:38;16.33;;;9.95;;
50429;SDS011;36359;41.556;-8.418;2023-08-08T12:28:04;21.70;;;10.30;;
50429;SDS011;36359;41.556;-8.418;2023-08-08T12:30:30;18.85;;;10.18;;
50429;SDS011;36359;41.556;-8.418;2023-08-08T12:32:56;18.33;;;11.10;;
50429;SDS011;36359;41.556;-8.418;2023-08-08T12:35:22;19.20;;;11.40;;
50429;SDS011;36359;41.556;-8.418;2023-08-08T12:37:51;20.27;;;11.48;;
50429;SDS011;36359;41.556;-8.418;2023-08-08T12:40:18;19.90;;;10.43;;
50429;SDS011;36359;41.556;-8.418;2023-08-08T12:42:43;17.65;;;11.07;;
50429;SDS011;36359;41.556;-8.418;2023-08-08T12:45:09;18.98;;;10.32;;
50429;SDS011;36359;41.556;-8.418;2023-08-08T12:47:36;18.40;;;10.43;;
50429;SDS011;36359;41.556;-8.418;2023-08-08T12:50:05;17.40;;;9.05;;
50429;SDS011;36359;41.556;-8.418;2023-08-08T12:52:32;16.70;;;9.95;;
50429;SDS011;36359;41.556;-8.418;2023-08-08T12:54:57;20.02;;;10.18;;
50429;SDS011;36359;41.556;-8.418;2023-08-08T12:57:23;18.67;;;9.30;;
50429;SDS011;36359;41.556;-8.418;2023-08-08T12:59:50;14.85;;;9.32;;
50429;SDS011;36359;41.556;-8.418;2023-08-08T13:02:16;16.83;;;10.52;;
50429;SDS011;36359;41.556;-8.418;2023-08-08T13:04:41;13.20;;;9.27;;
50429;SDS011;36359;41.556;-8.418;2023-08-08T13:07:07;15.13;;;8.40;;
50429;SDS011;36359;41.556;-8.418;2023-08-08T13:09:33;14.10;;;8.20;;
50429;SDS011;36359;41.556;-8.418;2023-08-08T13:11:58;20.80;;;8.52;;
50429;SDS011;36359;41.556;-8.418;2023-08-08T13:14:24;15.65;;;8.32;;
50429;SDS011;36359;41.556;-8.418;2023-08-08T13:16:50;13.82;;;7.93;;
50429;SDS011;36359;41.556;-8.418;2023-08-08T13:19:16;12.15;;;8.05;;
50429;SDS011;36359;41.556;-8.418;2023-08-08T13:21:45;11.48;;;7.55;;
50429;SDS011;36359;41.556;-8.418;2023-08-08T13:24:10;12.52;;;8.55;;
50429;SDS011;36359;41.556;-8.418;2023-08-08T13:26:38;13.15;;;8.65;;
50429;SDS011;36359;41.556;-8.418;2023-08-08T13:29:04;12.02;;;6.50;;
50429;SDS011;36359;41.556;-8.418;2023-08-08T13:31:30;17.02;;;7.18;;
50429;SDS011;36359;41.556;-8.418;2023-08-08T13:33:56;12.30;;;6.25;;
50429;SDS011;36359;41.556;-8.418;2023-08-08T13:36:21;11.30;;;7.05;;
50429;SDS011;36359;41.556;-8.418;2023-08-08T13:38:47;16.35;;;6.03;;
50429;SDS011;36359;41.556;-8.418;2023-08-08T13:41:12;15.07;;;6.32;;
50429;SDS011;36359;41.556;-8.418;2023-08-08T13:43:38;12.70;;;5.70;;
50429;SDS011;36359;41.556;-8.418;2023-08-08T13:46:04;10.85;;;7.25;;
50429;SDS011;36359;41.556;-8.418;2023-08-08T13:48:33;13.60;;;5.63;;
50429;SDS011;36359;41.556;-8.418;2023-08-08T13:50:59;9.63;;;5.72;;
50429;SDS011;36359;41.556;-8.418;2023-08-08T13:53:25;11.18;;;6.32;;
50429;SDS011;36359;41.556;-8.418;2023-08-08T13:55:51;9.65;;;5.75;;
50429;SDS011;36359;41.556;-8.418;2023-08-08T13:58:17;15.93;;;6.28;;
50429;SDS011;36359;41.556;-8.418;2023-08-08T14:00:42;12.15;;;5.45;;
50429;SDS011;36359;41.556;-8.418;2023-08-08T14:03:08;13.60;;;6.20;;
50429;SDS011;36359;41.556;-8.418;2023-08-08T14:05:34;12.70;;;6.22;;
50429;SDS011;36359;41.556;-8.418;2023-08-08T14:08:02;10.70;;;5.80;;
50429;SDS011;36359;41.556;-8.418;2023-08-08T14:10:28;12.27;;;5.43;;
50429;SDS011;36359;41.556;-8.418;2023-08-08T14:12:53;11.70;;;5.00;;
50429;SDS011;36359;41.556;-8.418;2023-08-08T14:15:19;13.45;;;5.10;;
50429;SDS011;36359;41.556;-8.418;2023-08-08T14:17:46;11.88;;;4.90;;
50429;SDS011;36359;41.556;-8.418;2023-08-08T14:20:12;11.30;;;4.85;;
50429;SDS011;36359;41.556;-8.418;2023-08-08T14:22:38;13.35;;;5.57;;
50429;SDS011;36359;41.556;-8.418;2023-08-08T14:25:03;10.93;;;4.90;;
50429;SDS011;36359;41.556;-8.418;2023-08-08T14:27:31;11.60;;;5.03;;
50429;SDS011;36359;41.556;-8.418;2023-08-08T14:29:57;14.52;;;5.35;;
50429;SDS011;36359;41.556;-8.418;2023-08-08T14:32:23;14.82;;;5.10;;